Time;durP1;ratioP1;P1;durP2;ratioP2;P2;SDS_P1;SDS_P2;PMS_P1;PMS_P2;Temp;Humidity;BMP_temperature;BMP_pressure;BME280_temperature;BME280_humidity;BME280_pressure;Samples;Min_cycle;Max_cycle;Signal;HPM_P1;HPM_P2
2021/04/16 00:02:06;;;;;;;0.20;0.10;;;;;;;2.59;85.07;101288.44;5011285;28;20954;-59
2021/04/16 00:04:33;;;;;;;0.20;0.10;;;;;;;2.56;85.15;101284.88;5012302;28;20832;-58
2021/04/16 00:06:59;;;;;;;0.30;0.10;;;;;;;2.44;86.64;101284.63;5011297;28;20527;-58
2021/04/16 00:09:27;;;;;;;0.20;0.10;;;;;;;2.49;86.21;101293.50;5012404;28;20934;-58
2021/04/16 00:11:53;;;;;;;0.20;0.10;;;;;;;2.62;85.91;101285.00;5012312;28;20453;-58
2021/04/16 00:14:20;;;;;;;0.20;0.20;;;;;;;2.57;86.21;101276.13;5015341;28;20937;-58
2021/04/16 00:16:47;;;;;;;0.30;0.20;;;;;;;2.71;85.74;101277.28;5015910;28;20488;-58
2021/04/16 00:19:14;;;;;;;0.20;0.10;;;;;;;2.67;86.07;101271.09;5015897;28;20539;-58
2021/04/16 00:21:40;;;;;;;0.30;0.10;;;;;;;2.59;87.17;101277.94;5015971;28;20931;-58
2021/04/16 00:24:12;;;;;;;0.30;0.10;;;;;;;2.53;86.48;101275.22;5016019;28;20463;-58
2021/04/16 00:26:40;;;;;;;0.20;0.10;;;;;;;2.64;86.55;101270.19;5015310;28;20578;-58
2021/04/16 00:29:06;;;;;;;0.20;0.10;;;;;;;2.67;86.25;101270.22;5015796;28;20498;-58
2021/04/16 00:31:34;;;;;;;0.30;0.20;;;;;;;2.79;86.44;101269.59;5002542;28;20457;-58
2021/04/16 00:34:00;;;;;;;0.20;0.20;;;;;;;2.86;86.11;101266.19;5015326;28;20468;-58
2021/04/16 00:36:29;;;;;;;0.20;0.20;;;;;;;2.74;86.48;101256.38;5015151;28;20566;-58
2021/04/16 00:38:56;;;;;;;0.20;0.10;;;;;;;2.73;86.55;101258.94;5015201;28;20460;-58
2021/04/16 00:41:25;;;;;;;0.20;0.10;;;;;;;2.81;86.39;101253.00;5015666;28;20916;-58
2021/04/16 00:43:51;;;;;;;0.20;0.20;;;;;;;2.66;87.15;101248.34;5015388;28;20448;-58
2021/04/16 00:46:21;;;;;;;0.20;0.10;;;;;;;2.70;87.24;101254.53;5015355;28;20465;-59
2021/04/16 00:48:55;;;;;;;0.20;0.20;;;;;;;2.79;86.50;101251.19;5015299;28;20452;-58
2021/04/16 00:51:40;;;;;;;0.20;0.20;;;;;;;2.70;87.52;101257.16;5015248;28;20448;-58
2021/04/16 00:54:11;;;;;;;0.20;0.10;;;;;;;2.73;88.24;101249.34;5015509;28;20448;-58
2021/04/16 00:56:38;;;;;;;0.20;0.13;;;;;;;2.84;87.49;101244.28;5015172;28;20515;-58
2021/04/16 00:59:05;;;;;;;0.30;0.20;;;;;;;2.96;87.29;101247.13;5015048;28;20460;-58
2021/04/16 01:01:31;;;;;;;0.30;0.10;;;;;;;3.00;87.27;101243.69;5014872;28;20861;-58
2021/04/16 01:03:57;;;;;;;0.20;0.20;;;;;;;3.02;86.73;101242.00;5015119;28;20798;-58
2021/04/16 01:06:24;;;;;;;0.20;0.20;;;;;;;2.99;86.16;101239.31;5014572;28;20468;-58
2021/04/16 01:08:51;;;;;;;0.30;0.10;;;;;;;2.99;86.07;101244.56;5015182;28;20453;-59
2021/04/16 01:11:18;;;;;;;0.20;0.10;;;;;;;2.99;85.90;101236.69;5014906;28;20458;-58
2021/04/16 01:13:47;;;;;;;0.20;0.10;;;;;;;3.05;86.19;101236.81;5001920;28;20464;-58
2021/04/16 01:16:17;;;;;;;0.20;0.10;;;;;;;3.11;86.57;101244.78;5014482;28;20485;-58
2021/04/16 01:18:50;;;;;;;0.20;0.20;;;;;;;3.09;85.38;101237.72;5014721;28;20531;-58
2021/04/16 01:21:24;;;;;;;0.20;0.10;;;;;;;3.07;86.24;101242.06;5014520;28;20830;-58
2021/04/16 01:24:03;;;;;;;0.20;0.10;;;;;;;3.08;86.17;101233.34;5014587;28;20957;-58
2021/04/16 01:28:58;;;;;;;0.20;0.10;;;;;;;3.13;84.56;101229.03;5045010;28;20969;-55
2021/04/16 01:31:27;;;;;;;0.30;0.10;;;;;;;3.07;84.85;101232.44;5053925;28;20447;-55
2021/04/16 01:33:53;;;;;;;0.20;0.17;;;;;;;3.05;85.83;101230.66;5048143;28;20877;-55
2021/04/16 01:36:24;;;;;;;0.20;0.10;;;;;;;3.01;87.32;101234.94;5047793;28;20487;-55
2021/04/16 01:38:51;;;;;;;0.20;0.13;;;;;;;3.09;88.02;101235.97;5034401;28;20448;-55
2021/04/16 01:41:18;;;;;;;0.30;0.20;;;;;;;3.21;87.21;101230.06;5046525;28;20506;-54
2021/04/16 01:43:53;;;;;;;0.20;0.10;;;;;;;3.23;86.95;101234.47;5047439;28;20451;-55
2021/04/16 01:46:20;;;;;;;0.20;0.20;;;;;;;3.17;87.12;101242.25;5042187;28;20463;-54
2021/04/16 01:48:49;;;;;;;0.20;0.10;;;;;;;3.24;86.71;101228.34;5040267;28;20456;-55
2021/04/16 01:51:23;;;;;;;0.20;0.10;;;;;;;3.34;86.05;101232.03;5044848;28;20497;-55
2021/04/16 01:54:12;;;;;;;0.20;0.10;;;;;;;3.34;85.82;101233.78;5043499;28;20456;-55
2021/04/16 01:56:40;;;;;;;0.30;0.20;;;;;;;3.28;85.61;101224.91;5040216;28;20490;-55
2021/04/16 01:59:12;;;;;;;0.20;0.10;;;;;;;3.42;85.74;101226.88;5046778;28;20451;-55
2021/04/16 02:01:38;;;;;;;0.20;0.10;;;;;;;3.19;86.45;101218.66;5046788;28;20443;-55
2021/04/16 02:04:04;;;;;;;0.20;0.10;;;;;;;3.21;88.02;101214.28;5028202;28;20453;-55
2021/04/16 02:06:35;;;;;;;0.20;0.17;;;;;;;3.15;87.44;101216.81;5038867;28;20562;-54
2021/04/16 02:09:06;;;;;;;0.30;0.20;;;;;;;3.19;87.68;101216.03;5021565;28;20979;-55
2021/04/16 02:11:33;;;;;;;0.20;0.10;;;;;;;3.01;87.84;101210.44;5044546;28;20492;-55
2021/04/16 02:13:59;;;;;;;0.20;0.10;;;;;;;3.02;88.87;101217.50;5022704;28;20505;-55
2021/04/16 02:16:25;;;;;;;0.20;0.10;;;;;;;2.87;89.92;101213.72;5046520;28;21046;-55
2021/04/16 02:18:54;;;;;;;0.30;0.20;;;;;;;2.95;89.15;101211.22;5042375;28;20537;-55
2021/04/16 02:21:20;;;;;;;0.20;0.10;;;;;;;2.87;90.03;101207.56;5050687;28;20458;-55
2021/04/16 02:23:46;;;;;;;0.20;0.10;;;;;;;2.73;90.74;101211.69;5033354;28;20451;-55
2021/04/16 02:26:13;;;;;;;0.20;0.10;;;;;;;2.79;89.61;101203.94;5043902;28;20475;-55
2021/04/16 02:28:39;;;;;;;0.30;0.20;;;;;;;2.88;89.77;101207.63;5032285;28;20461;-57
2021/04/16 02:31:05;;;;;;;0.20;0.10;;;;;;;2.96;89.13;101205.13;5038069;28;20448;-55
2021/04/16 02:33:31;;;;;;;0.20;0.10;;;;;;;2.87;89.90;101207.56;5046980;28;20478;-55
2021/04/16 02:35:59;;;;;;;0.30;0.20;;;;;;;2.77;90.43;101206.56;5039156;28;20525;-55
2021/04/16 02:38:25;;;;;;;0.20;0.10;;;;;;;2.76;91.22;101193.41;5043455;28;20495;-55
2021/04/16 02:40:51;;;;;;;0.20;0.10;;;;;;;2.81;90.76;101205.75;5048869;28;20864;-55
2021/04/16 02:43:18;;;;;;;0.20;0.10;;;;;;;2.90;90.13;101197.16;5043510;28;20447;-55
2021/04/16 02:45:45;;;;;;;0.20;0.10;;;;;;;2.85;90.20;101194.44;5043308;28;20458;-55
2021/04/16 02:48:11;;;;;;;0.20;0.20;;;;;;;2.89;89.71;101203.25;5022456;28;21036;-55
2021/04/16 02:50:37;;;;;;;0.20;0.10;;;;;;;2.80;90.84;101190.84;5046147;28;20459;-55
2021/04/16 02:53:03;;;;;;;0.20;0.10;;;;;;;2.82;90.94;101193.50;5042085;28;20458;-54
2021/04/16 02:55:29;;;;;;;0.20;0.10;;;;;;;2.87;91.26;101195.34;5039090;28;20446;-55
2021/04/16 02:57:56;;;;;;;0.20;0.10;;;;;;;2.95;90.50;101196.34;5042689;28;20495;-55
2021/04/16 03:00:27;;;;;;;0.20;0.10;;;;;;;3.01;90.28;101198.19;5043441;28;20934;-55
2021/04/16 03:02:54;;;;;;;0.20;0.13;;;;;;;2.91;89.82;101188.41;5041939;28;20454;-55
2021/04/16 03:05:21;;;;;;;0.20;0.17;;;;;;;2.88;90.45;101193.63;5045746;28;20514;-54
2021/04/16 03:07:47;;;;;;;0.20;0.10;;;;;;;2.93;90.55;101197.19;5032260;28;20989;-54
2021/04/16 03:10:16;;;;;;;0.20;0.20;;;;;;;2.96;90.58;101192.00;5044446;28;20451;-54
2021/04/16 03:12:42;;;;;;;0.20;0.10;;;;;;;2.98;91.14;101196.41;5044064;28;20455;-54
2021/04/16 03:15:10;;;;;;;0.20;0.10;;;;;;;2.92;91.09;101187.56;5038680;28;20447;-55
2021/04/16 03:17:36;;;;;;;0.87;0.80;;;;;;;3.05;90.26;101192.16;5040631;28;20549;-54
2021/04/16 03:20:05;;;;;;;0.20;0.10;;;;;;;3.18;89.74;101186.25;5045624;28;20509;-55
2021/04/16 03:22:31;;;;;;;0.20;0.10;;;;;;;3.15;89.76;101175.69;5044538;28;20860;-55
2021/04/16 03:24:57;;;;;;;0.20;0.10;;;;;;;3.22;89.29;101184.53;5038595;28;20458;-55
2021/04/16 03:27:23;;;;;;;0.20;0.10;;;;;;;3.25;89.50;101193.34;5039873;28;20476;-54
2021/04/16 03:29:50;;;;;;;0.20;0.10;;;;;;;3.16;89.99;101180.09;5044416;28;20525;-55
2021/04/16 03:32:16;;;;;;;0.20;0.20;;;;;;;3.19;89.65;101180.13;5038966;28;20451;-53
2021/04/16 03:34:42;;;;;;;0.20;0.10;;;;;;;3.25;90.56;101184.56;5045502;28;20460;-53
2021/04/16 03:37:08;;;;;;;0.20;0.20;;;;;;;3.17;91.65;101183.59;5044142;28;20494;-53
2021/04/16 03:39:34;;;;;;;0.20;0.10;;;;;;;3.12;91.27;101186.13;5038717;28;20451;-53
2021/04/16 03:42:01;;;;;;;0.20;0.10;;;;;;;3.23;91.55;101184.56;5040517;28;20870;-53
2021/04/16 03:44:27;;;;;;;0.20;0.10;;;;;;;3.31;92.60;101175.94;5045388;28;20448;-52
2021/04/16 03:46:53;;;;;;;0.20;0.17;;;;;;;3.39;92.29;101183.03;5044490;28;20467;-53
2021/04/16 03:49:20;;;;;;;0.20;0.10;;;;;;;3.41;91.98;101177.81;5041744;28;21022;-52
2021/04/16 03:51:58;;;;;;;0.30;0.20;;;;;;;3.27;91.76;101177.59;5044097;28;20478;-53
2021/04/16 03:54:26;;;;;;;0.20;0.10;;;;;;;3.74;91.19;101174.78;5043350;28;20455;-53
2021/04/16 03:56:52;;;;;;;0.20;0.10;;;;;;;4.00;90.75;101170.75;5042713;28;20843;-53
2021/04/16 03:59:20;;;;;;;0.20;0.10;;;;;;;4.16;90.44;101175.31;5048837;28;20921;-53
2021/04/16 04:01:47;;;;;;;0.33;0.33;;;;;;;4.30;89.91;101171.97;5049910;28;20446;-53
2021/04/16 04:04:14;;;;;;;0.30;0.10;;;;;;;4.49;88.23;101173.91;5044742;28;20446;-53
2021/04/16 04:06:40;;;;;;;0.20;0.10;;;;;;;4.53;88.01;101178.38;5040014;28;20464;-53
2021/04/16 04:09:06;;;;;;;0.20;0.10;;;;;;;4.57;87.70;101176.66;5044922;28;20512;-53
2021/04/16 04:11:33;;;;;;;0.30;0.20;;;;;;;4.78;86.82;101173.31;5037567;28;20851;-53
2021/04/16 04:14:00;;;;;;;0.20;0.20;;;;;;;4.78;86.44;101173.31;5049928;28;20925;-53
2021/04/16 04:16:27;;;;;;;0.20;0.10;;;;;;;4.70;86.56;101166.25;5040783;28;20471;-53
2021/04/16 04:18:55;;;;;;;0.20;0.10;;;;;;;4.74;86.54;101175.06;5046337;28;20447;-53
2021/04/16 04:21:22;;;;;;;0.20;0.17;;;;;;;4.83;85.99;101174.25;5048915;28;20455;-53
2021/04/16 04:23:48;;;;;;;0.23;0.17;;;;;;;5.09;84.90;101167.47;5045638;28;20786;-52
2021/04/16 04:26:15;;;;;;;0.30;0.10;;;;;;;4.96;84.83;101173.50;5042081;28;20514;-53
2021/04/16 04:28:41;;;;;;;0.20;0.10;;;;;;;4.89;84.85;101169.91;5045815;28;20842;-53
2021/04/16 04:31:09;;;;;;;0.30;0.10;;;;;;;5.26;83.49;101179.00;5048757;28;20484;-53
2021/04/16 04:33:35;;;;;;;0.20;0.10;;;;;;;5.07;83.62;101174.44;5045322;28;20454;-53
2021/04/16 04:36:02;;;;;;;0.20;0.10;;;;;;;5.19;83.53;101178.94;5041488;28;20987;-53
2021/04/16 04:38:28;;;;;;;0.20;0.10;;;;;;;5.28;83.30;101176.38;5045030;28;20553;-53
2021/04/16 04:40:54;;;;;;;0.20;0.20;;;;;;;5.11;83.24;101180.66;5048898;28;20451;-53
2021/04/16 04:43:20;;;;;;;0.30;0.10;;;;;;;4.84;84.64;101179.53;5045076;28;20963;-53
2021/04/16 04:45:47;;;;;;;0.23;0.20;;;;;;;4.61;86.75;101181.94;5041501;28;20450;-53
2021/04/16 04:48:13;;;;;;;0.20;0.20;;;;;;;4.58;86.83;101174.03;5043785;28;20455;-53
2021/04/16 04:50:39;;;;;;;0.20;0.10;;;;;;;4.80;85.82;101177.75;5048455;28;20454;-56
2021/04/16 04:53:05;;;;;;;0.20;0.10;;;;;;;4.64;86.87;101181.97;5044337;28;20457;-53
2021/04/16 04:55:33;;;;;;;0.23;0.10;;;;;;;4.64;86.70;101175.81;5041208;28;20932;-53
2021/04/16 04:58:00;;;;;;;0.20;0.10;;;;;;;4.70;85.96;101170.63;5044697;28;20520;-53
2021/04/16 05:00:27;;;;;;;0.30;0.20;;;;;;;4.73;86.24;101174.16;5044963;28;20446;-53
2021/04/16 05:02:55;;;;;;;0.20;0.10;;;;;;;4.70;86.71;101166.25;5044270;28;20448;-53
2021/04/16 05:05:23;;;;;;;0.20;0.10;;;;;;;4.71;85.72;101172.41;5047812;28;20483;-53
2021/04/16 05:07:49;;;;;;;0.30;0.20;;;;;;;4.77;85.66;101180.34;5034501;28;21019;-53
2021/04/16 05:10:16;;;;;;;0.30;0.20;;;;;;;4.74;85.62;101165.41;5047975;28;20466;-53
2021/04/16 05:12:42;;;;;;;0.30;0.20;;;;;;;4.88;85.59;101170.78;5046751;28;20455;-53
2021/04/16 05:15:10;;;;;;;0.30;0.20;;;;;;;4.89;84.83;101169.91;5041222;28;20451;-53
2021/04/16 05:17:36;;;;;;;0.30;0.10;;;;;;;5.11;83.15;101167.47;5042175;28;20491;-52
2021/04/16 05:20:04;;;;;;;0.30;0.20;;;;;;;5.06;84.09;101168.28;5047688;28;20454;-53
2021/04/16 05:22:30;;;;;;;0.30;0.10;;;;;;;5.32;82.11;101170.25;5047217;28;20496;-53
2021/04/16 05:24:57;;;;;;;0.27;0.17;;;;;;;5.42;82.35;101172.09;5041266;28;20452;-53
2021/04/16 05:27:23;;;;;;;0.53;0.53;;;;;;;5.45;83.00;101169.47;5041385;28;20542;-53
2021/04/16 05:29:49;;;;;;;0.30;0.10;;;;;;;5.29;83.40;101160.56;5047743;28;20474;-53
2021/04/16 05:32:17;;;;;;;0.20;0.13;;;;;;;5.31;83.28;101161.47;5034234;28;20879;-55
2021/04/16 05:34:45;;;;;;;0.30;0.10;;;;;;;5.49;83.22;101167.75;5047330;28;20841;-53
2021/04/16 05:37:12;;;;;;;0.20;0.10;;;;;;;5.52;82.67;101165.13;5047410;28;20560;-53
2021/04/16 05:39:38;;;;;;;0.20;0.17;;;;;;;5.33;83.76;101170.25;5041248;28;20534;-53
2021/04/16 05:42:05;;;;;;;0.20;0.20;;;;;;;5.49;82.61;101176.53;5040400;28;20949;-53
2021/04/16 05:44:31;;;;;;;0.20;0.10;;;;;;;5.52;82.98;101181.81;5047010;28;20497;-53
2021/04/16 05:46:57;;;;;;;0.20;0.10;;;;;;;5.48;82.95;101179.13;5047346;28;20502;-53
2021/04/16 05:49:26;;;;;;;2.43;1.13;;;;;;;5.52;83.00;101171.28;5041435;28;20533;-53
2021/04/16 05:51:53;;;;;;;0.20;0.10;;;;;;;5.53;83.07;101170.41;5040463;28;20452;-53
2021/04/16 05:54:19;;;;;;;0.20;0.10;;;;;;;5.70;82.96;101181.03;5046207;28;20828;-53
2021/04/16 05:56:45;;;;;;;0.30;0.20;;;;;;;5.70;83.62;101172.25;5046854;28;20490;-53
2021/04/16 05:59:12;;;;;;;0.23;0.10;;;;;;;5.79;82.04;101172.31;5041798;28;20504;-53
2021/04/16 06:01:38;;;;;;;0.20;0.10;;;;;;;5.67;83.33;101165.22;5047423;28;20443;-53
2021/04/16 06:04:05;;;;;;;0.20;0.10;;;;;;;5.72;82.35;101174.00;5030537;28;20470;-53
2021/04/16 06:06:31;;;;;;;0.20;0.20;;;;;;;5.80;82.75;101177.59;5042604;28;20483;-53
2021/04/16 06:08:57;;;;;;;0.20;0.20;;;;;;;5.92;83.13;101179.44;5046199;28;20459;-53
2021/04/16 06:11:24;;;;;;;0.20;0.10;;;;;;;5.98;80.48;101175.94;5046538;28;20497;-53
2021/04/16 06:13:50;;;;;;;0.20;0.10;;;;;;;6.02;81.01;101183.88;5041186;28;20527;-53
2021/04/16 06:16:16;;;;;;;0.20;0.10;;;;;;;6.15;80.10;101182.16;5039610;28;20517;-53
2021/04/16 06:18:43;;;;;;;0.20;0.10;;;;;;;6.04;80.26;101187.41;5045620;28;20499;-53
2021/04/16 06:21:10;;;;;;;0.20;0.20;;;;;;;6.27;79.46;101173.41;5046618;28;20512;-53
2021/04/16 06:23:36;;;;;;;0.20;0.10;;;;;;;6.37;78.98;101180.50;5041577;28;20861;-53
2021/04/16 06:26:03;;;;;;;0.30;0.10;;;;;;;6.37;79.79;101180.50;5039315;28;20471;-53
2021/04/16 06:28:29;;;;;;;0.30;0.20;;;;;;;6.60;78.75;101178.78;5044744;28;20581;-53
2021/04/16 06:30:55;;;;;;;0.30;0.17;;;;;;;6.60;76.85;101175.28;5046516;28;20458;-53
2021/04/16 06:33:26;;;;;;;0.30;0.20;;;;;;;6.66;76.31;101188.47;5041050;28;20451;-53
2021/04/16 06:35:59;;;;;;;1.50;1.03;;;;;;;6.59;72.75;101173.50;5039717;28;20533;-52
2021/04/16 06:38:31;;;;;;;0.30;0.20;;;;;;;6.53;70.91;101182.28;5043581;28;20491;-53
2021/04/16 06:40:59;;;;;;;0.30;0.20;;;;;;;6.44;70.99;101182.25;5046082;28;20451;-53
2021/04/16 06:43:35;;;;;;;0.30;0.20;;;;;;;6.45;71.86;101184.03;5043478;28;20454;-53
2021/04/16 06:46:02;;;;;;;0.30;0.10;;;;;;;6.58;70.61;101177.00;5039326;28;20477;-53
2021/04/16 06:48:28;;;;;;;0.30;0.20;;;;;;;6.71;71.06;101181.44;5040905;28;20471;-53
2021/04/16 06:50:59;;;;;;;0.30;0.20;;;;;;;6.87;71.23;101185.00;5046113;28;20459;-53
2021/04/16 06:53:39;;;;;;;0.30;0.10;;;;;;;6.53;69.31;101177.00;5045555;28;20446;-53
2021/04/16 06:56:12;;;;;;;0.20;0.10;;;;;;;6.49;70.55;101188.44;5028773;28;20462;-53
2021/04/16 06:58:58;;;;;;;0.30;0.20;;;;;;;6.40;70.12;101189.28;5039118;28;20495;-53
2021/04/16 07:01:31;;;;;;;0.30;0.10;;;;;;;6.35;70.48;101187.53;5047355;28;20439;-53
2021/04/16 07:04:31;;;;;;;0.30;0.10;;;;;;;6.64;70.70;101185.84;5039613;28;20868;-53
2021/04/16 07:07:01;;;;;;;0.30;0.20;;;;;;;6.33;70.81;101184.88;5033089;28;20521;-53
2021/04/16 07:09:41;;;;;;;0.30;0.10;;;;;;;6.33;70.28;101191.94;5044293;28;20489;-53
2021/04/16 07:12:14;;;;;;;0.30;0.17;;;;;;;6.27;70.51;101189.25;5045468;28;20447;-53
2021/04/16 07:14:48;;;;;;;0.30;0.10;;;;;;;6.56;70.22;101184.94;5045650;28;20443;-53
2021/04/16 07:17:18;;;;;;;0.30;0.20;;;;;;;6.57;70.18;101185.81;5041297;28;21003;-53
2021/04/16 07:19:44;;;;;;;0.40;0.40;;;;;;;6.57;71.60;101185.81;5038764;28;20450;-53
2021/04/16 07:22:22;;;;;;;0.30;0.17;;;;;;;6.53;69.09;101192.84;5042527;28;20452;-53
2021/04/16 07:24:50;;;;;;;0.30;0.10;;;;;;;6.60;70.06;101194.66;5045241;28;20447;-53
2021/04/16 07:27:16;;;;;;;0.30;0.20;;;;;;;6.77;70.39;101192.91;5043917;28;20487;-53
2021/04/16 07:29:52;;;;;;;0.30;0.20;;;;;;;6.61;69.54;101193.75;5038504;28;20534;-52
2021/04/16 07:32:26;;;;;;;0.30;0.20;;;;;;;6.59;69.98;101202.56;5038726;28;20905;-54
2021/04/16 07:34:54;;;;;;;0.30;0.20;;;;;;;6.40;70.77;101201.63;5026234;28;20936;-53
2021/04/16 07:37:27;;;;;;;0.30;0.20;;;;;;;6.19;71.45;101211.25;5038498;28;20495;-52
2021/04/16 07:40:04;;;;;;;0.30;0.20;;;;;;;6.24;70.87;101204.19;5039638;28;20452;-53
2021/04/16 07:42:39;;;;;;;0.30;0.20;;;;;;;6.28;70.67;101205.09;5040752;28;20550;-53
2021/04/16 07:45:17;;;;;;;0.30;0.20;;;;;;;6.43;71.08;101206.91;5040595;28;20940;-53
2021/04/16 07:47:45;;;;;;;0.30;0.20;;;;;;;6.27;70.75;101205.09;5045240;28;20486;-53
2021/04/16 07:50:29;;;;;;;0.30;0.10;;;;;;;6.20;70.50;101201.56;5045123;28;20474;-53
2021/04/16 07:52:56;;;;;;;0.30;0.10;;;;;;;6.17;70.55;101194.50;5043157;28;20521;-53
2021/04/16 07:55:27;;;;;;;0.30;0.10;;;;;;;6.58;71.26;101195.50;5045296;28;20462;-54
2021/04/16 07:57:53;;;;;;;0.30;0.10;;;;;;;6.43;69.39;101206.91;5041230;28;20521;-53
2021/04/16 08:00:21;;;;;;;0.30;0.13;;;;;;;6.75;69.30;101192.03;5038504;28;20444;-53
2021/04/16 08:03:02;;;;;;;0.30;0.10;;;;;;;6.57;69.93;101189.31;5042076;28;20538;-52
2021/04/16 08:05:35;;;;;;;0.30;0.20;;;;;;;6.76;69.83;101190.25;5044887;28;20443;-53
2021/04/16 08:08:13;;;;;;;0.27;0.10;;;;;;;6.68;71.39;101192.88;5031902;28;20448;-53
2021/04/16 08:10:41;;;;;;;0.30;0.20;;;;;;;6.89;70.70;101196.44;5039891;28;20527;-53
2021/04/16 08:13:29;;;;;;;0.30;0.20;;;;;;;6.95;69.05;101199.97;5037884;28;20864;-53
2021/04/16 08:16:22;;;;;;;0.30;0.20;;;;;;;6.63;68.85;101189.34;5040222;28;20525;-53
2021/04/16 08:19:29;;;;;;;0.30;0.20;;;;;;;7.03;68.02;101194.69;5039904;28;20523;-52
2021/04/16 08:22:31;;;;;;;0.30;0.30;;;;;;;7.14;68.97;101192.94;5042965;28;20837;-52
2021/04/16 08:25:08;;;;;;;0.30;0.20;;;;;;;7.37;69.19;101201.72;5042345;28;20458;-53
2021/04/16 08:27:51;;;;;;;0.30;0.10;;;;;;;7.03;67.40;101198.22;5044488;28;20482;-53
2021/04/16 08:30:58;;;;;;;0.57;0.57;;;;;;;7.39;69.10;101199.94;5040854;28;20504;-53
2021/04/16 08:33:35;;;;;;;0.30;0.10;;;;;;;6.89;67.12;101199.09;5043821;28;20506;-53
2021/04/16 08:36:22;;;;;;;0.30;0.20;;;;;;;7.20;67.21;101192.03;5041952;28;20478;-53
2021/04/16 08:39:01;;;;;;;0.30;0.20;;;;;;;7.08;66.78;101208.78;5042689;28;20491;-53
2021/04/16 08:41:31;;;;;;;0.30;0.20;;;;;;;6.92;66.50;101215.81;5041813;28;20458;-53
2021/04/16 08:44:04;;;;;;;0.30;0.20;;;;;;;7.07;65.57;101201.72;5041454;28;20871;-53
2021/04/16 08:46:30;;;;;;;0.30;0.10;;;;;;;6.93;66.92;101196.44;5046341;28;20467;-53
2021/04/16 08:49:03;;;;;;;0.30;0.10;;;;;;;7.16;65.50;101195.59;5048515;28;20492;-52
2021/04/16 08:51:34;;;;;;;0.30;0.10;;;;;;;7.47;67.07;101193.78;5045310;28;20446;-53
2021/04/16 08:54:07;;;;;;;0.30;0.10;;;;;;;7.08;64.20;101199.09;5041687;28;20439;-52
2021/04/16 08:57:05;;;;;;;0.30;0.10;;;;;;;7.34;64.79;101201.72;5042711;28;20474;-53
2021/04/16 08:59:49;;;;;;;0.30;0.10;;;;;;;7.48;65.24;101192.91;5042804;28;20446;-53
2021/04/16 09:02:19;;;;;;;0.30;0.10;;;;;;;7.67;64.01;101197.25;5047531;28;20447;-52
2021/04/16 09:05:03;;;;;;;0.30;0.10;;;;;;;7.68;65.12;101197.28;5047944;28;20446;-52
2021/04/16 09:07:43;;;;;;;0.30;0.20;;;;;;;7.45;63.80;101195.56;5049398;28;20555;-52
2021/04/16 09:10:15;;;;;;;0.30;0.10;;;;;;;7.46;62.45;101197.31;5041153;28;20549;-53
2021/04/16 09:12:41;;;;;;;0.30;0.20;;;;;;;7.52;61.94;101205.22;5043590;28;20454;-53
2021/04/16 09:15:19;;;;;;;0.30;0.20;;;;;;;7.52;62.45;101190.25;5047854;28;20448;-52
2021/04/16 09:17:51;;;;;;;0.30;0.20;;;;;;;7.81;62.12;101191.94;5047057;28;20491;-53
2021/04/16 09:20:39;;;;;;;0.30;0.20;;;;;;;8.09;62.54;101195.41;5047448;28;20830;-53
2021/04/16 09:23:38;;;;;;;0.30;0.20;;;;;;;8.37;62.37;101194.44;4995019;28;20461;-53
2021/04/16 09:26:09;;;;;;;0.30;0.17;;;;;;;8.14;61.26;101196.25;5041016;28;20475;-53
2021/04/16 09:28:42;;;;;;;0.30;0.20;;;;;;;7.73;60.15;101202.56;5045269;28;20805;-53
2021/04/16 09:31:24;;;;;;;0.30;0.20;;;;;;;7.82;60.11;101209.63;5047691;28;20517;-53
2021/04/16 09:34:06;;;;;;;0.30;0.20;;;;;;;7.82;60.20;101199.03;5046632;28;20890;-53
2021/04/16 09:36:33;;;;;;;0.30;0.13;;;;;;;7.83;59.66;101188.44;5046457;28;20475;-52
2021/04/16 09:39:31;;;;;;;0.30;0.10;;;;;;;7.66;59.68;101183.16;5047361;28;20494;-53
2021/04/16 09:41:58;;;;;;;0.30;0.20;;;;;;;7.74;60.63;101191.09;5046794;28;20447;-53
2021/04/16 09:44:27;;;;;;;0.30;0.20;;;;;;;7.99;60.45;101178.66;5040532;28;20447;-53
2021/04/16 09:47:03;;;;;;;0.50;0.47;;;;;;;7.94;60.74;101183.06;5040057;28;20476;-53
2021/04/16 09:49:34;;;;;;;0.30;0.20;;;;;;;8.14;59.90;101183.03;5042281;28;20504;-53
2021/04/16 09:52:25;;;;;;;0.30;0.10;;;;;;;8.04;59.22;101187.47;5040588;28;20451;-52
2021/04/16 09:54:52;;;;;;;0.30;0.20;;;;;;;7.83;60.28;101184.91;5041769;28;20459;-53
2021/04/16 09:57:40;;;;;;;0.30;0.20;;;;;;;8.20;59.99;101186.50;5047189;28;20491;-53
2021/04/16 10:01:00;;;;;;;0.30;0.17;;;;;;;8.10;58.08;101179.50;5043884;28;20466;-53
2021/04/16 10:03:32;;;;;;;0.30;0.20;;;;;;;8.17;57.75;101183.88;5041096;28;20940;-54
2021/04/16 10:06:25;;;;;;;0.30;0.20;;;;;;;8.15;58.07;101183.00;5043634;28;20467;-53
2021/04/16 10:09:16;;;;;;;0.30;0.20;;;;;;;8.33;57.63;101174.09;5046606;28;20809;-53
2021/04/16 10:11:56;;;;;;;0.30;0.20;;;;;;;8.34;58.11;101178.53;5046733;28;20458;-53
2021/04/16 10:14:25;;;;;;;1.07;0.50;;;;;;;8.07;57.58;101183.91;5045797;28;20466;-53
2021/04/16 10:17:14;;;;;;;0.30;0.20;;;;;;;8.10;57.69;101183.94;5039888;28;20490;-53
2021/04/16 10:19:43;;;;;;;0.40;0.33;;;;;;;8.36;58.18;101176.78;5039428;28;20955;-53
2021/04/16 10:22:20;;;;;;;0.30;0.20;;;;;;;8.40;56.44;101169.69;5044012;28;20851;-53
2021/04/16 10:34:22;;;;;;;0.30;0.20;;;;;;;8.17;57.37;101165.34;5043347;28;20944;-52
2021/04/16 12:40:26;;;;;;;0.30;0.20;;;;;;;9.13;56.58;101134.69;5043603;28;20868;-53
2021/04/16 12:42:55;;;;;;;0.30;0.20;;;;;;;9.35;57.59;101132.72;5048848;28;20462;-53
2021/04/16 12:45:23;;;;;;;0.30;0.20;;;;;;;9.57;56.05;101131.56;5047579;28;20513;-52
2021/04/16 12:47:57;;;;;;;0.30;0.20;;;;;;;9.26;56.12;101128.38;5041544;28;20528;-53
2021/04/16 12:50:26;;;;;;;0.30;0.20;;;;;;;8.98;56.22;101119.78;5041471;28;20963;-53
2021/04/16 12:52:53;;;;;;;0.30;0.20;;;;;;;9.18;56.36;101127.53;5047277;28;20451;-52
2021/04/16 12:55:21;;;;;;;0.30;0.10;;;;;;;9.49;56.52;101136.97;5048124;28;21002;-54
2021/04/16 12:57:54;;;;;;;0.30;0.10;;;;;;;9.61;55.21;101135.09;5042928;28;20494;-53
2021/04/16 13:00:40;;;;;;;0.30;0.10;;;;;;;9.28;55.55;101129.22;5042156;28;20446;-53
2021/04/16 13:03:20;;;;;;;0.30;0.20;;;;;;;9.66;54.53;101131.47;5042634;28;20498;-53
2021/04/16 13:05:48;;;;;;;0.30;0.20;;;;;;;9.54;55.85;101139.59;5030809;28;20990;-53
2021/04/16 13:08:15;;;;;;;0.30;0.20;;;;;;;9.57;55.70;101131.56;5042936;28;20500;-53
2021/04/16 13:10:41;;;;;;;0.30;0.20;;;;;;;9.58;56.01;101130.69;5042706;28;20457;-53
2021/04/16 13:13:12;;;;;;;0.30;0.20;;;;;;;9.55;54.68;101141.34;5041298;28;20527;-53
2021/04/16 13:15:39;;;;;;;0.30;0.30;;;;;;;9.15;56.87;101136.41;5045482;28;20459;-52
2021/04/16 13:18:14;;;;;;;0.67;0.67;;;;;;;9.10;55.97;101130.28;5047646;28;20490;-52
2021/04/16 13:20:43;;;;;;;0.30;0.20;;;;;;;8.94;57.41;101141.94;5043667;28;20550;-53
2021/04/16 13:23:09;;;;;;;0.30;0.20;;;;;;;8.87;58.13;101137.56;5040619;28;20451;-53
2021/04/16 13:25:35;;;;;;;0.30;0.20;;;;;;;9.16;56.74;101137.31;5043309;28;20941;-53
2021/04/16 13:28:02;;;;;;;0.30;0.20;;;;;;;9.47;56.03;101129.94;5070096;22;21009;-58
2021/04/16 13:30:31;;;;;;;0.30;0.20;;;;;;;9.27;58.83;101130.13;5062181;28;20959;-58
2021/04/16 13:33:03;;;;;;;0.30;0.20;;;;;;;9.27;58.32;101129.25;5065946;28;20481;-58
2021/04/16 13:35:40;;;;;;;0.30;0.20;;;;;;;9.27;58.88;101135.44;5061151;28;20892;-58
2021/04/16 13:38:12;;;;;;;0.30;0.20;;;;;;;9.40;59.08;101133.53;5067638;28;20494;-58
2021/04/16 13:40:38;;;;;;;0.30;0.20;;;;;;;9.32;58.39;101130.06;5067903;28;20442;-58
2021/04/16 13:43:05;;;;;;;0.30;0.20;;;;;;;9.16;59.44;101130.22;5061403;28;20922;-58
2021/04/16 13:45:31;;;;;;;0.30;0.20;;;;;;;9.14;59.10;101126.72;5059362;28;20446;-58
2021/04/16 13:48:00;;;;;;;0.30;0.20;;;;;;;9.06;60.21;101115.31;5066563;28;21006;-58
2021/04/16 13:50:27;;;;;;;0.30;0.20;;;;;;;9.15;60.64;101119.63;5067143;28;20450;-58
2021/04/16 13:52:53;;;;;;;0.30;0.20;;;;;;;9.20;60.73;101115.19;5061747;28;20449;-58
2021/04/16 13:55:20;;;;;;;0.30;0.27;;;;;;;9.39;59.81;101115.88;5060520;28;20516;-58
2021/04/16 13:57:46;;;;;;;0.30;0.20;;;;;;;9.03;60.47;101112.66;5065387;28;20497;-58
2021/04/16 14:00:21;;;;;;;0.30;0.20;;;;;;;9.31;61.19;101105.31;5063752;28;20498;-58
2021/04/16 14:02:49;;;;;;;0.30;0.20;;;;;;;9.20;61.25;101113.41;5064004;28;20446;-58
2021/04/16 14:05:26;;;;;;;0.30;0.20;;;;;;;9.23;61.30;101098.34;5067293;28;20473;-58
2021/04/16 14:07:53;;;;;;;0.30;0.20;;;;;;;9.30;61.63;101100.03;5053656;28;20470;-58